createdAt,value
2023-05-20T00:00:01.883Z,100692.00
2023-05-20T00:02:30.742Z,100687.78
2023-05-20T00:04:59.474Z,100697.25
2023-05-20T00:07:28.291Z,100690.34
2023-05-20T00:10:03.552Z,100687.94
2023-05-20T00:12:32.245Z,100687.81
2023-05-20T00:15:01.268Z,100692.28
2023-05-20T00:17:29.971Z,100693.03
2023-05-20T00:20:00.284Z,100703.50
2023-05-20T00:22:28.979Z,100708.88
2023-05-20T00:24:57.630Z,100709.78
2023-05-20T00:27:26.191Z,100708.88
2023-05-20T00:29:54.810Z,100710.53
2023-05-20T00:32:23.439Z,100707.97
2023-05-20T00:34:59.940Z,100706.19
2023-05-20T00:37:28.677Z,100700.81
2023-05-20T00:39:57.551Z,100695.03
2023-05-20T00:42:28.906Z,100699.50
2023-05-20T00:44:56.840Z,100699.44
2023-05-20T00:47:30.683Z,100696.88
2023-05-20T00:50:00.423Z,100699.50
2023-05-20T00:52:33.020Z,100703.88
2023-05-20T00:55:01.681Z,100705.69
2023-05-20T00:57:30.918Z,100704.00
2023-05-20T00:59:59.925Z,100698.75
2023-05-20T01:02:29.650Z,100704.13
2023-05-20T01:04:57.929Z,100693.41
2023-05-20T01:07:26.198Z,100681.13
2023-05-20T01:09:56.279Z,100683.03
2023-05-20T01:12:29.903Z,100671.84
2023-05-20T01:15:10.010Z,100675.31
2023-05-20T01:17:47.526Z,100676.31
2023-05-20T01:20:15.911Z,100673.78
2023-05-20T01:22:52.851Z,100666.75
2023-05-20T01:25:22.023Z,100669.44
2023-05-20T01:27:51.202Z,100665.94
2023-05-20T01:30:19.627Z,100669.53
2023-05-20T01:32:55.394Z,100664.22
2023-05-20T01:35:24.499Z,100662.63
2023-05-20T01:37:54.285Z,100664.81
2023-05-20T01:40:24.853Z,100666.41
2023-05-20T01:42:55.440Z,100668.22
2023-05-20T01:45:25.520Z,100670.78
2023-05-20T01:47:54.365Z,100662.00
2023-05-20T01:50:23.622Z,100678.63
2023-05-20T01:52:52.282Z,100673.28
2023-05-20T01:55:20.943Z,100688.31
2023-05-20T01:57:48.779Z,100691.72
2023-05-20T02:00:17.600Z,100696.88
2023-05-20T02:02:46.387Z,100697.84
2023-05-20T02:05:15.075Z,100689.16
2023-05-20T02:07:43.116Z,100684.91
2023-05-20T02:10:11.889Z,100691.28
2023-05-20T02:12:40.670Z,100694.75
2023-05-20T02:15:09.701Z,100697.28
2023-05-20T02:17:39.940Z,100692.88
2023-05-20T02:20:09.078Z,100681.41
2023-05-20T02:22:37.031Z,100686.69
2023-05-20T02:25:05.204Z,100693.72
2023-05-20T02:27:33.061Z,100681.50
2023-05-20T02:30:00.982Z,100687.69
2023-05-20T02:32:29.712Z,100684.13
2023-05-20T02:34:58.396Z,100680.69
2023-05-20T02:37:27.336Z,100682.56
2023-05-20T02:39:56.432Z,100686.91
2023-05-20T02:42:25.100Z,100688.66
2023-05-20T02:44:56.701Z,100675.69
2023-05-20T02:47:25.999Z,100681.75
2023-05-20T02:49:54.687Z,100677.38
2023-05-20T02:52:23.367Z,100679.97
2023-05-20T02:54:52.977Z,100673.78
2023-05-20T02:57:21.150Z,100667.66
2023-05-20T02:59:49.962Z,100668.66
2023-05-20T03:02:18.599Z,100670.63
2023-05-20T03:04:47.633Z,100671.59
2023-05-20T03:07:19.737Z,100679.50
2023-05-20T03:09:48.900Z,100680.41
2023-05-20T03:12:17.709Z,100672.50
2023-05-20T03:14:46.316Z,100679.44
2023-05-20T03:17:14.260Z,100682.13
2023-05-20T03:19:42.872Z,100685.66
2023-05-20T03:22:11.750Z,100683.09
2023-05-20T03:24:40.684Z,100672.50
2023-05-20T03:27:09.464Z,100678.69
2023-05-20T03:29:38.317Z,100682.16
2023-05-20T03:32:08.750Z,100681.16
2023-05-20T03:34:38.737Z,100684.88
2023-05-20T03:37:06.643Z,100689.16
2023-05-20T03:39:34.505Z,100677.69
2023-05-20T03:42:02.396Z,100681.19
2023-05-20T03:44:30.132Z,100681.13
2023-05-20T03:46:58.227Z,100679.25
2023-05-20T03:49:26.980Z,100677.63
2023-05-20T03:51:55.588Z,100675.88
2023-05-20T03:54:24.142Z,100681.03
2023-05-20T03:56:52.814Z,100675.03
2023-05-20T03:59:22.446Z,100683.75
2023-05-20T04:01:51.587Z,100682.06
2023-05-20T04:04:19.804Z,100687.75
2023-05-20T04:06:47.625Z,100682.38
2023-05-20T04:09:15.933Z,100684.03
2023-05-20T04:11:44.624Z,100684.84
2023-05-20T04:14:12.418Z,100683.81
2023-05-20T04:16:43.745Z,100687.25
2023-05-20T04:19:13.012Z,100695.16
2023-05-20T04:21:43.368Z,100694.34
2023-05-20T04:24:12.363Z,100691.75
2023-05-20T04:26:40.982Z,100688.22
2023-05-20T04:29:09.906Z,100691.97
2023-05-20T04:31:38.619Z,100691.03
2023-05-20T04:34:06.502Z,100678.72
2023-05-20T04:36:38.422Z,100686.72
2023-05-20T04:39:09.833Z,100693.63
2023-05-20T04:41:38.540Z,100699.75
2023-05-20T04:44:07.449Z,100697.97
2023-05-20T04:46:35.424Z,100695.19
2023-05-20T04:49:04.748Z,100704.03
2023-05-20T04:51:31.669Z,100709.38
2023-05-20T04:54:00.312Z,100707.53
2023-05-20T04:56:29.418Z,100702.06
2023-05-20T04:58:58.950Z,100715.00
2023-05-20T05:01:27.798Z,100719.19
2023-05-20T05:03:56.616Z,100721.88
2023-05-20T05:06:24.491Z,100721.09
2023-05-20T05:08:53.156Z,100717.44
2023-05-20T05:11:21.614Z,100706.91
2023-05-20T05:13:50.244Z,100705.19
2023-05-20T05:16:19.033Z,100704.38
2023-05-20T05:18:47.824Z,100710.41
2023-05-20T05:21:16.672Z,100707.50
2023-05-20T05:23:44.609Z,100706.34
2023-05-20T05:26:13.279Z,100698.63
2023-05-20T05:28:43.540Z,100702.00
2023-05-20T05:31:12.317Z,100708.13
2023-05-20T05:33:40.927Z,100701.81
2023-05-20T05:36:08.743Z,100701.44
2023-05-20T05:38:37.714Z,100703.03
2023-05-20T05:41:06.410Z,100695.81
2023-05-20T05:43:35.368Z,100696.66
2023-05-20T05:46:05.262Z,100702.66
2023-05-20T05:48:34.031Z,100702.69
2023-05-20T05:51:01.982Z,100703.41
2023-05-20T05:53:30.604Z,100708.81
2023-05-20T05:55:59.836Z,100714.91
2023-05-20T05:58:27.617Z,100710.53
2023-05-20T06:00:56.315Z,100705.03
2023-05-20T06:03:24.228Z,100706.69
2023-05-20T06:05:52.905Z,100709.19
2023-05-20T06:08:21.914Z,100709.81
2023-05-20T06:10:51.188Z,100707.19
2023-05-20T06:13:20.799Z,100706.09
2023-05-20T06:15:51.218Z,100712.38
2023-05-20T06:18:19.888Z,100711.94
2023-05-20T06:20:47.905Z,100717.03
2023-05-20T06:23:16.668Z,100718.63
2023-05-20T06:25:45.976Z,100712.34
2023-05-20T06:28:14.913Z,100717.59
2023-05-20T06:30:43.511Z,100715.63
2023-05-20T06:33:11.799Z,100715.84
2023-05-20T06:35:39.548Z,100713.81
2023-05-20T06:38:08.202Z,100713.56
2023-05-20T06:40:36.012Z,100706.38
2023-05-20T06:43:04.670Z,100711.38
2023-05-20T06:45:33.603Z,100711.22
2023-05-20T06:48:02.593Z,100702.25
2023-05-20T06:50:30.829Z,100709.97
2023-05-20T06:52:59.717Z,100702.81
2023-05-20T06:55:28.993Z,100702.81
2023-05-20T06:57:57.687Z,100696.75
2023-05-20T07:00:26.484Z,100700.91
2023-05-20T07:02:55.200Z,100696.28
2023-05-20T07:05:24.661Z,100705.16
2023-05-20T07:07:52.434Z,100695.25
2023-05-20T07:10:21.234Z,100692.28
2023-05-20T07:12:49.900Z,100699.84
2023-05-20T07:15:18.122Z,100698.69
2023-05-20T07:17:46.883Z,100700.44
2023-05-20T07:20:14.806Z,100702.91
2023-05-20T07:22:44.483Z,100706.44
2023-05-20T07:25:13.229Z,100701.09
2023-05-20T07:27:41.124Z,100695.97
2023-05-20T07:30:09.217Z,100694.06
2023-05-20T07:32:37.277Z,100683.31
2023-05-20T07:35:06.116Z,100685.69
2023-05-20T07:37:34.760Z,100694.16
2023-05-20T07:40:02.736Z,100702.00
2023-05-20T07:42:31.344Z,100697.50
2023-05-20T07:44:59.192Z,100688.19
2023-05-20T07:47:28.074Z,100693.13
2023-05-20T07:49:56.643Z,100683.38
2023-05-20T07:52:25.287Z,100688.09
2023-05-20T07:54:53.843Z,100683.50
2023-05-20T07:57:22.507Z,100686.44
2023-05-20T07:59:50.073Z,100678.88
2023-05-20T08:02:18.014Z,100678.50
2023-05-20T08:04:46.703Z,100678.03
2023-05-20T08:07:15.258Z,100675.88
2023-05-20T08:09:43.582Z,100669.53
2023-05-20T08:12:12.250Z,100679.31
2023-05-20T08:14:39.931Z,100677.25
2023-05-20T08:17:07.747Z,100668.16
2023-05-20T08:19:35.966Z,100666.81
2023-05-20T08:22:03.975Z,100662.19
2023-05-20T08:24:31.649Z,100657.69
2023-05-20T08:27:01.007Z,100654.81
2023-05-20T08:29:29.582Z,100655.69
2023-05-20T08:31:58.140Z,100654.06
2023-05-20T08:34:26.822Z,100653.38
2023-05-20T08:36:55.620Z,100654.88
2023-05-20T08:39:23.499Z,100647.75
2023-05-20T08:41:52.313Z,100642.00
2023-05-20T08:44:23.031Z,100646.41
2023-05-20T08:46:52.789Z,100640.81
2023-05-20T08:49:20.898Z,100653.97
2023-05-20T08:51:49.453Z,100649.97
2023-05-20T08:54:20.536Z,100655.50
2023-05-20T08:56:48.443Z,100647.47
2023-05-20T08:59:19.167Z,100650.06
2023-05-20T09:01:47.061Z,100657.56
2023-05-20T09:04:14.980Z,100646.19
2023-05-20T09:06:44.975Z,100661.66
2023-05-20T09:09:16.162Z,100657.72
2023-05-20T09:11:44.470Z,100654.66
2023-05-20T09:14:12.312Z,100651.19
2023-05-20T09:16:41.703Z,100650.81
2023-05-20T09:19:11.139Z,100646.16
2023-05-20T09:21:41.921Z,100650.56
2023-05-20T09:24:10.773Z,100647.06
2023-05-20T09:26:38.672Z,100641.78
2023-05-20T09:29:08.659Z,100644.06
2023-05-20T09:31:39.018Z,100639.75
2023-05-20T09:34:08.661Z,100641.22
2023-05-20T09:36:40.644Z,100623.31
2023-05-20T09:39:13.064Z,100628.91
2023-05-20T09:41:52.522Z,100611.13
2023-05-20T09:44:22.336Z,100611.97
2023-05-20T09:46:53.333Z,100609.31
2023-05-20T09:49:23.808Z,100602.41
2023-05-20T09:51:53.298Z,100600.84
2023-05-20T09:54:22.756Z,100597.91
2023-05-20T09:56:51.800Z,100598.75
2023-05-20T09:59:22.675Z,100596.25
2023-05-20T10:01:53.107Z,100593.03
2023-05-20T10:04:23.507Z,100585.81
2023-05-20T10:07:41.210Z,100583.41
2023-05-20T10:10:46.294Z,100582.13
2023-05-20T10:13:43.100Z,100562.78
2023-05-20T10:16:49.432Z,100565.09
2023-05-20T10:19:21.326Z,100573.94
2023-05-20T10:22:09.774Z,100567.94
2023-05-20T10:24:43.346Z,100558.63
2023-05-20T10:27:14.898Z,100553.63
2023-05-20T10:29:52.667Z,100549.50
2023-05-20T10:32:27.678Z,100550.81
2023-05-20T10:35:05.324Z,100550.00
2023-05-20T10:37:42.181Z,100553.88
2023-05-20T10:40:14.945Z,100551.97
2023-05-20T10:42:43.266Z,100549.78
2023-05-20T10:45:12.470Z,100540.50
2023-05-20T10:47:56.916Z,100540.84
2023-05-20T10:50:29.026Z,100541.88
2023-05-20T10:53:09.452Z,100539.72
2023-05-20T10:55:41.783Z,100549.94
2023-05-20T10:58:11.239Z,100538.31
2023-05-20T11:00:39.527Z,100538.09
2023-05-20T11:03:08.526Z,100535.91
2023-05-20T11:05:40.018Z,100524.78
2023-05-20T11:08:20.676Z,100526.47
2023-05-20T11:10:58.306Z,100526.53
2023-05-20T11:13:26.946Z,100520.41
2023-05-20T11:15:55.798Z,100521.16
2023-05-20T11:18:24.504Z,100521.91
2023-05-20T11:20:54.473Z,100510.00
2023-05-20T11:23:23.650Z,100512.88
2023-05-20T11:25:53.586Z,100502.16
2023-05-20T11:28:21.581Z,100511.00
2023-05-20T11:30:51.566Z,100508.47
2023-05-20T11:33:19.814Z,100500.97
2023-05-20T11:35:50.892Z,100508.44
2023-05-20T11:38:20.850Z,100488.00
2023-05-20T11:40:54.830Z,100504.56
2023-05-20T11:43:24.284Z,100502.94
2023-05-20T11:45:55.505Z,100499.78
2023-05-20T11:48:24.445Z,100490.41
2023-05-20T11:50:55.059Z,100492.00
2023-05-20T11:53:24.155Z,100496.03
2023-05-20T11:56:00.744Z,100494.13
2023-05-20T11:58:31.970Z,100481.47
2023-05-20T12:01:09.563Z,100489.44
2023-05-20T12:03:48.947Z,100493.41
2023-05-20T12:06:18.785Z,100481.69
2023-05-20T12:08:47.655Z,100488.00
2023-05-20T12:11:15.481Z,100475.06
2023-05-20T12:13:44.241Z,100473.13
2023-05-20T12:16:12.122Z,100471.56
2023-05-20T12:18:40.791Z,100467.22
2023-05-20T12:21:09.620Z,100465.59
2023-05-20T12:23:38.165Z,100464.38
2023-05-20T12:26:06.331Z,100457.06
2023-05-20T12:28:34.036Z,100454.28
2023-05-20T12:31:02.596Z,100451.59
2023-05-20T12:33:30.320Z,100452.34
2023-05-20T12:35:59.060Z,100453.66
2023-05-20T12:38:28.153Z,100444.34
2023-05-20T12:40:58.582Z,100455.53
2023-05-20T12:43:29.931Z,100446.88
2023-05-20T12:45:57.549Z,100442.88
2023-05-20T12:48:26.341Z,100446.75
2023-05-20T12:50:54.306Z,100439.59
2023-05-20T12:53:21.862Z,100436.50
2023-05-20T12:55:50.417Z,100427.47
2023-05-20T12:58:18.121Z,100426.81
2023-05-20T13:00:47.255Z,100425.09
2023-05-20T13:03:16.115Z,100428.19
2023-05-20T13:05:44.314Z,100421.50
2023-05-20T13:08:14.779Z,100419.38
2023-05-20T13:10:43.674Z,100417.94
2023-05-20T13:13:11.638Z,100413.06
2023-05-20T13:15:39.266Z,100419.31
2023-05-20T13:18:08.582Z,100411.09
2023-05-20T13:20:38.862Z,100414.56
2023-05-20T13:23:08.702Z,100415.91
2023-05-20T13:25:38.050Z,100408.25
2023-05-20T13:28:06.758Z,100399.19
2023-05-20T13:30:34.785Z,100401.88
2023-05-20T13:33:03.831Z,100401.91
2023-05-20T13:35:31.546Z,100398.72
2023-05-20T13:38:00.430Z,100395.91
2023-05-20T13:40:29.374Z,100393.44
2023-05-20T13:42:59.860Z,100389.75
2023-05-20T13:45:27.671Z,100376.13
2023-05-20T13:47:55.577Z,100389.03
2023-05-20T13:50:24.559Z,100381.19
2023-05-20T13:52:51.273Z,100384.22
2023-05-20T13:55:18.238Z,100376.75
2023-05-20T13:57:45.169Z,100375.25
2023-05-20T14:00:12.788Z,100371.16
2023-05-20T14:02:39.548Z,100368.06
2023-05-20T14:05:08.129Z,100367.53
2023-05-20T14:07:35.023Z,100366.75
2023-05-20T14:10:01.895Z,100366.13
2023-05-20T14:12:28.826Z,100372.47
2023-05-20T14:14:55.884Z,100357.31
2023-05-20T14:17:22.708Z,100375.97
2023-05-20T14:19:49.672Z,100364.50
2023-05-20T14:22:16.578Z,100368.16
2023-05-20T14:24:43.361Z,100365.78
2023-05-20T14:27:11.563Z,100368.91
2023-05-20T14:29:38.255Z,100361.81
2023-05-20T14:32:05.548Z,100365.34
2023-05-20T14:34:32.298Z,100349.34
2023-05-20T14:36:59.083Z,100361.22
2023-05-20T14:39:25.912Z,100349.78
2023-05-20T14:41:52.617Z,100349.38
2023-05-20T14:44:19.436Z,100343.50
2023-05-20T14:46:46.210Z,100345.09
2023-05-20T14:49:13.102Z,100345.91
2023-05-20T14:51:39.922Z,100336.44
2023-05-20T14:54:07.957Z,100338.41
2023-05-20T14:56:34.992Z,100341.00
2023-05-20T14:59:01.907Z,100336.50
2023-05-20T15:01:29.706Z,100339.50
2023-05-20T15:03:56.727Z,100337.81
2023-05-20T15:06:23.710Z,100334.88
2023-05-20T15:08:50.856Z,100333.75
2023-05-20T15:11:17.685Z,100326.81
2023-05-20T15:13:46.934Z,100314.66
2023-05-20T15:16:14.181Z,100312.44
2023-05-20T15:18:41.346Z,100307.84
2023-05-20T15:21:08.190Z,100303.72
2023-05-20T15:23:35.709Z,100300.88
2023-05-20T15:26:03.027Z,100306.91
2023-05-20T15:28:29.958Z,100301.97
2023-05-20T15:30:56.981Z,100303.19
2023-05-20T15:33:24.679Z,100301.75
2023-05-20T15:35:51.528Z,100297.88
2023-05-20T15:38:18.516Z,100299.63
2023-05-20T15:40:45.525Z,100290.00
2023-05-20T15:43:12.800Z,100293.84
2023-05-20T15:45:39.967Z,100284.28
2023-05-20T15:48:08.367Z,100281.13
2023-05-20T15:50:36.776Z,100276.94
2023-05-20T15:53:08.662Z,100269.50
2023-05-20T15:55:36.154Z,100283.22
2023-05-20T15:58:03.102Z,100276.59
2023-05-20T16:00:30.137Z,100278.91
2023-05-20T16:02:57.187Z,100277.44
2023-05-20T16:05:25.722Z,100279.28
2023-05-20T16:07:53.758Z,100278.34
2023-05-20T16:10:24.757Z,100290.69
2023-05-20T16:12:53.176Z,100282.13
2023-05-20T16:15:20.194Z,100288.13
2023-05-20T16:17:47.125Z,100290.72
2023-05-20T16:20:18.413Z,100294.34
2023-05-20T16:22:45.447Z,100285.97
2023-05-20T16:25:12.426Z,100291.84
2023-05-20T16:27:39.234Z,100289.13
2023-05-20T16:30:07.998Z,100299.44
2023-05-20T16:32:35.371Z,100292.00
2023-05-20T16:35:02.647Z,100296.69
2023-05-20T16:37:31.103Z,100304.22
2023-05-20T16:39:58.403Z,100300.13
2023-05-20T16:42:25.930Z,100303.31
2023-05-20T16:44:53.150Z,100310.66
2023-05-20T16:47:21.385Z,100306.44
2023-05-20T16:49:48.415Z,100300.97
2023-05-20T16:52:15.389Z,100304.34
2023-05-20T16:54:42.458Z,100300.03
2023-05-20T16:57:11.528Z,100303.97
2023-05-20T16:59:38.767Z,100301.75
2023-05-20T17:02:05.985Z,100304.03
2023-05-20T17:04:32.950Z,100313.09
2023-05-20T17:07:01.931Z,100311.44
2023-05-20T17:09:31.901Z,100301.47
2023-05-20T17:11:58.914Z,100306.34
2023-05-20T17:14:26.317Z,100314.56
2023-05-20T17:16:53.338Z,100317.72
2023-05-20T17:19:20.314Z,100309.97
2023-05-20T17:21:47.310Z,100309.09
2023-05-20T17:24:14.117Z,100306.19
2023-05-20T17:26:40.863Z,100312.66
2023-05-20T17:29:08.411Z,100315.97
2023-05-20T17:31:35.627Z,100308.47
2023-05-20T17:34:02.973Z,100311.66
2023-05-20T17:36:30.199Z,100309.31
2023-05-20T17:38:57.195Z,100308.38
2023-05-20T17:41:29.752Z,100314.44
2023-05-20T17:43:57.070Z,100315.84
2023-05-20T17:46:24.073Z,100319.59
2023-05-20T17:48:53.626Z,100316.44
2023-05-20T17:51:20.953Z,100321.50
2023-05-20T17:53:50.692Z,100327.06
2023-05-20T17:56:17.936Z,100322.19
2023-05-20T17:58:49.546Z,100336.09
2023-05-20T18:01:16.695Z,100332.59
2023-05-20T18:03:46.841Z,100330.75
2023-05-20T18:06:13.859Z,100348.88
2023-05-20T18:08:40.800Z,100353.81
2023-05-20T18:11:07.879Z,100349.16
2023-05-20T18:13:35.871Z,100366.69
2023-05-20T18:16:05.942Z,100352.78
2023-05-20T18:18:32.933Z,100368.19
2023-05-20T18:20:59.926Z,100378.09
2023-05-20T18:23:26.994Z,100377.09
2023-05-20T18:25:54.160Z,100393.25
2023-05-20T18:28:20.955Z,100414.50
2023-05-20T18:30:47.807Z,100412.56
2023-05-20T18:33:14.594Z,100435.06
2023-05-20T18:35:44.181Z,100437.38
2023-05-20T18:38:11.119Z,100443.97
2023-05-20T18:40:38.127Z,100434.94
2023-05-20T18:43:05.333Z,100433.16
2023-05-20T18:45:32.237Z,100419.69
2023-05-20T18:50:46.597Z,100436.50
2023-05-20T18:53:13.861Z,100435.50
2023-05-20T18:55:41.071Z,100442.41
2023-05-20T18:58:09.389Z,100438.16
2023-05-20T19:00:40.205Z,100430.84
2023-05-20T19:03:11.099Z,100432.66
2023-05-20T19:05:39.892Z,100430.75
2023-05-20T19:08:12.785Z,100422.44
2023-05-20T19:10:39.934Z,100446.34
2023-05-20T19:13:06.959Z,100437.63
2023-05-20T19:15:37.772Z,100439.13
2023-05-20T19:18:05.975Z,100432.53
2023-05-20T19:20:38.824Z,100436.06
2023-05-20T19:23:06.351Z,100445.69
2023-05-20T19:25:33.955Z,100436.13
2023-05-20T19:28:01.264Z,100443.56
2023-05-20T19:30:28.283Z,100450.91
2023-05-20T19:32:55.822Z,100443.97
2023-05-20T19:35:25.462Z,100444.25
2023-05-20T19:37:53.556Z,100455.66
2023-05-20T19:40:21.110Z,100462.47
2023-05-20T19:42:49.610Z,100463.47
2023-05-20T19:45:17.977Z,100462.41
2023-05-20T19:47:45.357Z,100447.41
2023-05-20T19:50:12.484Z,100462.47
2023-05-20T19:52:40.228Z,100455.66
2023-05-20T19:55:09.015Z,100459.28
2023-05-20T19:57:36.130Z,100461.75
2023-05-20T20:00:03.443Z,100462.19
2023-05-20T20:02:31.283Z,100466.50
2023-05-20T20:04:59.533Z,100467.28
2023-05-20T20:07:26.442Z,100475.69
2023-05-20T20:09:59.022Z,100477.16
2023-05-20T20:12:26.738Z,100460.38
2023-05-20T20:14:55.974Z,100465.19
2023-05-20T20:17:24.215Z,100465.00
2023-05-20T20:19:53.518Z,100467.44
2023-05-20T20:22:20.512Z,100463.00
2023-05-20T20:24:47.721Z,100453.41
2023-05-20T20:27:14.651Z,100458.38
2023-05-20T20:29:42.913Z,100453.91
2023-05-20T20:32:10.039Z,100451.94
2023-05-20T20:34:36.853Z,100453.06
2023-05-20T20:37:04.216Z,100449.06
2023-05-20T20:39:31.114Z,100446.75
2023-05-20T20:41:59.080Z,100442.19
2023-05-20T20:44:27.054Z,100443.69
2023-05-20T20:46:54.894Z,100437.75
2023-05-20T20:49:23.247Z,100432.91
2023-05-20T20:51:51.581Z,100430.03
2023-05-20T20:54:18.573Z,100421.59
2023-05-20T20:56:47.378Z,100421.38
2023-05-20T20:59:18.916Z,100424.22
2023-05-20T21:01:46.140Z,100411.72
2023-05-20T21:04:14.110Z,100416.81
2023-05-20T21:06:42.576Z,100401.94
2023-05-20T21:09:09.712Z,100411.34
2023-05-20T21:11:38.856Z,100419.69
2023-05-20T21:14:05.760Z,100410.25
2023-05-20T21:16:32.659Z,100423.41
2023-05-20T21:18:59.644Z,100414.50
2023-05-20T21:21:26.500Z,100411.16
2023-05-20T21:23:54.424Z,100411.75
2023-05-20T21:26:22.699Z,100411.09
2023-05-20T21:28:49.671Z,100409.31
2023-05-20T21:31:16.552Z,100408.84
2023-05-20T21:33:43.685Z,100414.63
2023-05-20T21:36:10.793Z,100409.50
2023-05-20T21:38:38.098Z,100401.38
2023-05-20T21:41:05.261Z,100409.50
2023-05-20T21:43:32.243Z,100398.44
2023-05-20T21:45:59.210Z,100398.75
2023-05-20T21:48:26.629Z,100403.66
2023-05-20T21:50:53.395Z,100399.91
2023-05-20T21:53:20.252Z,100400.56
2023-05-20T21:55:47.125Z,100399.34
2023-05-20T21:58:14.243Z,100405.00
2023-05-20T22:00:41.268Z,100393.47
2023-05-20T22:03:09.333Z,100394.28
2023-05-20T22:05:37.395Z,100391.31
2023-05-20T22:08:04.789Z,100390.25
2023-05-20T22:10:34.272Z,100389.63
2023-05-20T22:13:02.728Z,100392.72
2023-05-20T22:15:29.836Z,100386.41
2023-05-20T22:17:57.547Z,100383.50
2023-05-20T22:20:25.428Z,100375.78
2023-05-20T22:22:52.777Z,100389.78
2023-05-20T22:25:19.988Z,100377.56
2023-05-20T22:27:47.325Z,100382.16
2023-05-20T22:30:16.555Z,100382.00
2023-05-20T22:32:43.654Z,100386.16
2023-05-20T22:35:13.488Z,100391.47
2023-05-20T22:37:40.561Z,100381.53
2023-05-20T22:40:09.687Z,100385.28
2023-05-20T22:42:36.622Z,100385.44
2023-05-20T22:45:03.667Z,100377.03
2023-05-20T22:47:30.967Z,100375.59
2023-05-20T22:50:02.685Z,100377.59
2023-05-20T22:52:30.036Z,100381.09
2023-05-20T22:54:58.550Z,100379.06
2023-05-20T22:57:25.878Z,100386.53
2023-05-20T22:59:54.097Z,100382.88
2023-05-20T23:02:21.343Z,100378.38
2023-05-20T23:04:48.392Z,100378.38
2023-05-20T23:07:17.650Z,100374.66
2023-05-20T23:09:44.962Z,100368.66
2023-05-20T23:12:11.836Z,100376.59
2023-05-20T23:14:38.654Z,100366.41
2023-05-20T23:17:05.586Z,100376.94
2023-05-20T23:19:32.593Z,100374.38
2023-05-20T23:21:59.792Z,100373.78
2023-05-20T23:24:26.855Z,100369.31
2023-05-20T23:26:54.295Z,100377.44
2023-05-20T23:29:21.708Z,100368.69
2023-05-20T23:31:50.759Z,100377.88
2023-05-20T23:34:18.098Z,100370.06
2023-05-20T23:36:46.056Z,100382.44
2023-05-20T23:39:13.105Z,100376.53
2023-05-20T23:41:40.074Z,100372.63
2023-05-20T23:44:06.943Z,100381.16
2023-05-20T23:46:33.845Z,100375.56
2023-05-20T23:49:02.196Z,100378.09
2023-05-20T23:51:28.963Z,100378.16
2023-05-20T23:53:56.297Z,100371.25
2023-05-20T23:56:23.447Z,100367.72
2023-05-20T23:58:50.548Z,100366.31
